sensor_id;sensor_type;location;lat;lon;timestamp;temperature;humidity
32660;DHT22;19064;47.912;12.308;2023-07-30T00:02:15;18.30;99.90
32660;DHT22;19064;47.912;12.308;2023-07-30T00:04:42;18.40;99.90
32660;DHT22;19064;47.912;12.308;2023-07-30T00:07:09;18.40;99.90
32660;DHT22;19064;47.912;12.308;2023-07-30T00:09:37;18.30;99.90
32660;DHT22;19064;47.912;12.308;2023-07-30T00:12:05;18.30;99.90
32660;DHT22;19064;47.912;12.308;2023-07-30T00:14:32;18.40;99.90
32660;DHT22;19064;47.912;12.308;2023-07-30T00:16:59;18.40;99.90
32660;DHT22;19064;47.912;12.308;2023-07-30T00:19:26;18.40;99.90
32660;DHT22;19064;47.912;12.308;2023-07-30T00:21:53;18.30;99.90
32660;DHT22;19064;47.912;12.308;2023-07-30T00:24:19;18.40;99.90
32660;DHT22;19064;47.912;12.308;2023-07-30T00:26:48;18.30;99.90
32660;DHT22;19064;47.912;12.308;2023-07-30T00:29:14;18.30;99.90
32660;DHT22;19064;47.912;12.308;2023-07-30T00:31:41;18.30;99.90
32660;DHT22;19064;47.912;12.308;2023-07-30T00:34:08;18.40;99.90
32660;DHT22;19064;47.912;12.308;2023-07-30T00:36:34;18.40;99.90
32660;DHT22;19064;47.912;12.308;2023-07-30T00:39:01;18.30;99.90
32660;DHT22;19064;47.912;12.308;2023-07-30T00:41:28;18.20;99.90
32660;DHT22;19064;47.912;12.308;2023-07-30T00:43:56;18.10;99.90
32660;DHT22;19064;47.912;12.308;2023-07-30T00:46:23;18.10;99.90
32660;DHT22;19064;47.912;12.308;2023-07-30T00:48:50;17.90;99.90
32660;DHT22;19064;47.912;12.308;2023-07-30T00:51:16;17.80;99.90
32660;DHT22;19064;47.912;12.308;2023-07-30T00:53:43;17.70;99.90
32660;DHT22;19064;47.912;12.308;2023-07-30T00:56:11;17.70;99.90
32660;DHT22;19064;47.912;12.308;2023-07-30T00:58:39;17.50;99.90
32660;DHT22;19064;47.912;12.308;2023-07-30T01:01:08;17.50;99.90
32660;DHT22;19064;47.912;12.308;2023-07-30T01:03:36;17.40;99.90
32660;DHT22;19064;47.912;12.308;2023-07-30T01:06:03;17.40;99.90
32660;DHT22;19064;47.912;12.308;2023-07-30T01:08:30;17.30;99.90
32660;DHT22;19064;47.912;12.308;2023-07-30T01:10:57;17.30;99.90
32660;DHT22;19064;47.912;12.308;2023-07-30T01:13:25;17.30;99.90
32660;DHT22;19064;47.912;12.308;2023-07-30T01:15:52;17.20;99.90
32660;DHT22;19064;47.912;12.308;2023-07-30T01:18:20;17.20;99.90
32660;DHT22;19064;47.912;12.308;2023-07-30T01:20:47;17.10;99.90
32660;DHT22;19064;47.912;12.308;2023-07-30T01:23:15;17.00;99.90
32660;DHT22;19064;47.912;12.308;2023-07-30T01:25:42;16.90;99.90
32660;DHT22;19064;47.912;12.308;2023-07-30T01:28:12;16.90;99.90
32660;DHT22;19064;47.912;12.308;2023-07-30T01:30:44;16.90;99.90
32660;DHT22;19064;47.912;12.308;2023-07-30T01:33:11;16.90;99.90
32660;DHT22;19064;47.912;12.308;2023-07-30T01:35:38;16.90;99.90
32660;DHT22;19064;47.912;12.308;2023-07-30T01:38:08;16.90;99.90
32660;DHT22;19064;47.912;12.308;2023-07-30T01:40:36;17.00;99.90
32660;DHT22;19064;47.912;12.308;2023-07-30T01:43:03;17.00;99.90
32660;DHT22;19064;47.912;12.308;2023-07-30T01:45:30;17.00;99.90
32660;DHT22;19064;47.912;12.308;2023-07-30T01:47:57;17.00;99.90
32660;DHT22;19064;47.912;12.308;2023-07-30T01:50:24;17.00;99.90
32660;DHT22;19064;47.912;12.308;2023-07-30T01:52:51;16.90;99.90
32660;DHT22;19064;47.912;12.308;2023-07-30T01:55:17;16.90;99.90
32660;DHT22;19064;47.912;12.308;2023-07-30T01:57:46;16.80;99.90
32660;DHT22;19064;47.912;12.308;2023-07-30T02:00:13;16.80;99.90
32660;DHT22;19064;47.912;12.308;2023-07-30T02:02:39;16.80;99.90
32660;DHT22;19064;47.912;12.308;2023-07-30T02:05:06;16.80;99.90
32660;DHT22;19064;47.912;12.308;2023-07-30T02:07:33;16.80;99.90
32660;DHT22;19064;47.912;12.308;2023-07-30T02:10:00;16.70;99.90
32660;DHT22;19064;47.912;12.308;2023-07-30T02:12:26;16.80;99.90
32660;DHT22;19064;47.912;12.308;2023-07-30T02:14:54;16.70;99.90
32660;DHT22;19064;47.912;12.308;2023-07-30T02:17:21;16.80;99.90
32660;DHT22;19064;47.912;12.308;2023-07-30T02:19:48;16.70;99.90
32660;DHT22;19064;47.912;12.308;2023-07-30T02:22:15;16.80;99.90
32660;DHT22;19064;47.912;12.308;2023-07-30T02:24:41;16.80;99.90
32660;DHT22;19064;47.912;12.308;2023-07-30T02:27:08;16.90;99.90
32660;DHT22;19064;47.912;12.308;2023-07-30T02:29:35;16.90;99.90
32660;DHT22;19064;47.912;12.308;2023-07-30T02:32:06;16.80;99.90
32660;DHT22;19064;47.912;12.308;2023-07-30T02:34:33;16.80;99.90
32660;DHT22;19064;47.912;12.308;2023-07-30T02:37:00;16.80;99.90
32660;DHT22;19064;47.912;12.308;2023-07-30T02:39:27;17.00;99.90
32660;DHT22;19064;47.912;12.308;2023-07-30T02:41:54;17.20;99.90
32660;DHT22;19064;47.912;12.308;2023-07-30T02:44:20;17.00;99.90
32660;DHT22;19064;47.912;12.308;2023-07-30T02:46:47;17.00;99.90
32660;DHT22;19064;47.912;12.308;2023-07-30T02:49:15;17.00;99.90
32660;DHT22;19064;47.912;12.308;2023-07-30T02:51:42;16.90;99.90
32660;DHT22;19064;47.912;12.308;2023-07-30T02:54:14;16.90;99.90
32660;DHT22;19064;47.912;12.308;2023-07-30T02:56:41;17.00;99.90
32660;DHT22;19064;47.912;12.308;2023-07-30T02:59:08;16.90;99.90
32660;DHT22;19064;47.912;12.308;2023-07-30T03:01:34;16.80;99.90
32660;DHT22;19064;47.912;12.308;2023-07-30T03:04:01;16.80;99.90
32660;DHT22;19064;47.912;12.308;2023-07-30T03:06:29;16.80;99.90
32660;DHT22;19064;47.912;12.308;2023-07-30T03:08:56;16.80;99.90
32660;DHT22;19064;47.912;12.308;2023-07-30T03:11:23;16.80;99.90
32660;DHT22;19064;47.912;12.308;2023-07-30T03:13:50;16.80;99.90
32660;DHT22;19064;47.912;12.308;2023-07-30T03:16:16;16.70;99.90
32660;DHT22;19064;47.912;12.308;2023-07-30T03:18:43;16.80;99.90
32660;DHT22;19064;47.912;12.308;2023-07-30T03:21:10;16.80;99.90
32660;DHT22;19064;47.912;12.308;2023-07-30T03:23:38;16.90;99.90
32660;DHT22;19064;47.912;12.308;2023-07-30T03:26:06;16.90;99.90
32660;DHT22;19064;47.912;12.308;2023-07-30T03:28:33;16.90;99.90
32660;DHT22;19064;47.912;12.308;2023-07-30T03:30:59;16.90;99.90
32660;DHT22;19064;47.912;12.308;2023-07-30T03:33:26;16.80;99.90
32660;DHT22;19064;47.912;12.308;2023-07-30T03:35:53;17.00;99.90
32660;DHT22;19064;47.912;12.308;2023-07-30T03:38:20;17.20;99.90
32660;DHT22;19064;47.912;12.308;2023-07-30T03:40:48;17.30;99.90
32660;DHT22;19064;47.912;12.308;2023-07-30T03:43:17;17.20;99.90
32660;DHT22;19064;47.912;12.308;2023-07-30T03:45:44;17.20;99.90
32660;DHT22;19064;47.912;12.308;2023-07-30T03:48:11;17.30;99.90
32660;DHT22;19064;47.912;12.308;2023-07-30T03:50:38;17.20;99.90
32660;DHT22;19064;47.912;12.308;2023-07-30T03:53:05;17.20;99.90
32660;DHT22;19064;47.912;12.308;2023-07-30T03:55:32;17.20;99.90
32660;DHT22;19064;47.912;12.308;2023-07-30T03:58:00;17.10;99.90
32660;DHT22;19064;47.912;12.308;2023-07-30T04:00:27;17.20;99.90
32660;DHT22;19064;47.912;12.308;2023-07-30T04:02:54;17.20;99.90
32660;DHT22;19064;47.912;12.308;2023-07-30T04:05:21;17.20;99.90
32660;DHT22;19064;47.912;12.308;2023-07-30T04:07:48;17.20;99.90
32660;DHT22;19064;47.912;12.308;2023-07-30T04:10:15;17.30;99.90
32660;DHT22;19064;47.912;12.308;2023-07-30T04:12:42;17.30;99.90
32660;DHT22;19064;47.912;12.308;2023-07-30T04:15:11;17.40;99.90
32660;DHT22;19064;47.912;12.308;2023-07-30T04:17:38;17.40;99.90
32660;DHT22;19064;47.912;12.308;2023-07-30T04:20:06;17.40;99.90
32660;DHT22;19064;47.912;12.308;2023-07-30T04:22:34;17.40;99.90
32660;DHT22;19064;47.912;12.308;2023-07-30T04:25:03;17.40;99.90
32660;DHT22;19064;47.912;12.308;2023-07-30T04:27:30;17.30;99.90
32660;DHT22;19064;47.912;12.308;2023-07-30T04:29:58;17.40;99.90
32660;DHT22;19064;47.912;12.308;2023-07-30T04:32:27;17.50;99.90
32660;DHT22;19064;47.912;12.308;2023-07-30T04:34:53;17.60;99.90
32660;DHT22;19064;47.912;12.308;2023-07-30T04:37:21;17.50;99.90
32660;DHT22;19064;47.912;12.308;2023-07-30T04:39:48;17.50;99.90
32660;DHT22;19064;47.912;12.308;2023-07-30T04:42:15;17.50;99.90
32660;DHT22;19064;47.912;12.308;2023-07-30T04:44:42;17.50;99.90
32660;DHT22;19064;47.912;12.308;2023-07-30T04:47:09;17.60;99.90
32660;DHT22;19064;47.912;12.308;2023-07-30T04:49:37;17.50;99.90
32660;DHT22;19064;47.912;12.308;2023-07-30T04:52:06;17.60;99.90
32660;DHT22;19064;47.912;12.308;2023-07-30T04:54:33;17.60;99.90
32660;DHT22;19064;47.912;12.308;2023-07-30T04:57:02;17.60;99.90
32660;DHT22;19064;47.912;12.308;2023-07-30T04:59:28;17.70;99.90
32660;DHT22;19064;47.912;12.308;2023-07-30T05:01:55;17.70;99.90
32660;DHT22;19064;47.912;12.308;2023-07-30T05:04:22;17.70;99.90
32660;DHT22;19064;47.912;12.308;2023-07-30T05:06:50;17.60;99.90
32660;DHT22;19064;47.912;12.308;2023-07-30T05:09:17;17.60;99.90
32660;DHT22;19064;47.912;12.308;2023-07-30T05:11:44;17.70;99.90
32660;DHT22;19064;47.912;12.308;2023-07-30T05:14:10;17.80;99.90
32660;DHT22;19064;47.912;12.308;2023-07-30T05:16:37;17.70;99.90
32660;DHT22;19064;47.912;12.308;2023-07-30T05:19:04;17.70;99.90
32660;DHT22;19064;47.912;12.308;2023-07-30T05:21:30;17.70;99.90
32660;DHT22;19064;47.912;12.308;2023-07-30T05:23:59;17.90;99.90
32660;DHT22;19064;47.912;12.308;2023-07-30T05:26:25;18.00;99.90
32660;DHT22;19064;47.912;12.308;2023-07-30T05:28:52;18.00;99.90
32660;DHT22;19064;47.912;12.308;2023-07-30T05:31:19;18.00;99.90
32660;DHT22;19064;47.912;12.308;2023-07-30T05:33:45;18.00;99.90
32660;DHT22;19064;47.912;12.308;2023-07-30T05:36:12;18.00;99.90
32660;DHT22;19064;47.912;12.308;2023-07-30T05:38:39;18.00;99.90
32660;DHT22;19064;47.912;12.308;2023-07-30T05:41:07;18.00;99.90
32660;DHT22;19064;47.912;12.308;2023-07-30T05:43:34;17.90;99.90
32660;DHT22;19064;47.912;12.308;2023-07-30T05:46:00;17.80;99.90
32660;DHT22;19064;47.912;12.308;2023-07-30T05:48:27;17.80;99.90
32660;DHT22;19064;47.912;12.308;2023-07-30T05:50:54;17.90;99.90
32660;DHT22;19064;47.912;12.308;2023-07-30T05:53:21;17.80;99.90
32660;DHT22;19064;47.912;12.308;2023-07-30T05:55:48;17.90;99.90
32660;DHT22;19064;47.912;12.308;2023-07-30T05:58:16;17.90;99.90
32660;DHT22;19064;47.912;12.308;2023-07-30T06:00:42;18.00;99.90
32660;DHT22;19064;47.912;12.308;2023-07-30T06:03:09;18.10;99.90
32660;DHT22;19064;47.912;12.308;2023-07-30T06:05:39;18.10;99.90
32660;DHT22;19064;47.912;12.308;2023-07-30T06:08:06;18.10;99.90
32660;DHT22;19064;47.912;12.308;2023-07-30T06:10:35;18.20;99.90
32660;DHT22;19064;47.912;12.308;2023-07-30T06:13:02;18.30;99.90
32660;DHT22;19064;47.912;12.308;2023-07-30T06:15:31;18.30;99.90
32660;DHT22;19064;47.912;12.308;2023-07-30T06:18:00;18.40;99.90
32660;DHT22;19064;47.912;12.308;2023-07-30T06:20:29;18.50;99.90
32660;DHT22;19064;47.912;12.308;2023-07-30T06:22:57;18.50;99.90
32660;DHT22;19064;47.912;12.308;2023-07-30T06:25:25;18.50;99.90
32660;DHT22;19064;47.912;12.308;2023-07-30T06:27:53;18.60;99.90
32660;DHT22;19064;47.912;12.308;2023-07-30T06:30:22;18.70;99.90
32660;DHT22;19064;47.912;12.308;2023-07-30T06:32:52;18.70;99.90
32660;DHT22;19064;47.912;12.308;2023-07-30T06:35:20;18.90;99.90
32660;DHT22;19064;47.912;12.308;2023-07-30T06:37:48;18.90;99.90
32660;DHT22;19064;47.912;12.308;2023-07-30T06:40:16;19.00;99.90
32660;DHT22;19064;47.912;12.308;2023-07-30T06:42:43;19.20;99.90
32660;DHT22;19064;47.912;12.308;2023-07-30T06:45:12;19.20;99.90
32660;DHT22;19064;47.912;12.308;2023-07-30T06:47:42;19.20;99.90
32660;DHT22;19064;47.912;12.308;2023-07-30T06:50:11;19.20;99.90
32660;DHT22;19064;47.912;12.308;2023-07-30T06:52:39;19.30;99.90
32660;DHT22;19064;47.912;12.308;2023-07-30T06:55:07;19.40;99.90
32660;DHT22;19064;47.912;12.308;2023-07-30T06:57:35;19.50;99.90
32660;DHT22;19064;47.912;12.308;2023-07-30T07:00:05;19.50;99.90
32660;DHT22;19064;47.912;12.308;2023-07-30T07:02:34;19.50;99.90
32660;DHT22;19064;47.912;12.308;2023-07-30T07:05:03;19.60;99.90
32660;DHT22;19064;47.912;12.308;2023-07-30T07:07:36;19.60;99.90
32660;DHT22;19064;47.912;12.308;2023-07-30T07:10:05;19.60;99.90
32660;DHT22;19064;47.912;12.308;2023-07-30T07:12:33;19.70;99.90
32660;DHT22;19064;47.912;12.308;2023-07-30T07:15:02;19.80;99.90
32660;DHT22;19064;47.912;12.308;2023-07-30T07:17:30;19.80;99.90
32660;DHT22;19064;47.912;12.308;2023-07-30T07:19:58;19.90;99.90
32660;DHT22;19064;47.912;12.308;2023-07-30T07:22:26;20.00;99.90
32660;DHT22;19064;47.912;12.308;2023-07-30T07:24:56;20.00;99.90
32660;DHT22;19064;47.912;12.308;2023-07-30T07:27:24;20.10;99.90
32660;DHT22;19064;47.912;12.308;2023-07-30T07:29:53;20.30;99.90
32660;DHT22;19064;47.912;12.308;2023-07-30T07:32:21;20.30;99.90
32660;DHT22;19064;47.912;12.308;2023-07-30T07:34:49;20.40;99.90
32660;DHT22;19064;47.912;12.308;2023-07-30T07:37:17;20.50;99.90
32660;DHT22;19064;47.912;12.308;2023-07-30T07:39:46;20.70;99.90
32660;DHT22;19064;47.912;12.308;2023-07-30T07:42:16;20.60;99.90
32660;DHT22;19064;47.912;12.308;2023-07-30T07:44:44;20.60;99.90
32660;DHT22;19064;47.912;12.308;2023-07-30T07:47:13;20.70;99.90
32660;DHT22;19064;47.912;12.308;2023-07-30T07:49:43;20.80;99.90
32660;DHT22;19064;47.912;12.308;2023-07-30T07:52:10;20.80;99.90
32660;DHT22;19064;47.912;12.308;2023-07-30T07:54:38;20.80;99.90
32660;DHT22;19064;47.912;12.308;2023-07-30T07:57:08;21.00;99.90
32660;DHT22;19064;47.912;12.308;2023-07-30T07:59:37;21.00;99.90
32660;DHT22;19064;47.912;12.308;2023-07-30T08:02:05;21.10;99.90
32660;DHT22;19064;47.912;12.308;2023-07-30T08:04:36;21.10;99.90
32660;DHT22;19064;47.912;12.308;2023-07-30T08:07:04;21.20;99.90
32660;DHT22;19064;47.912;12.308;2023-07-30T08:09:32;21.20;99.90
32660;DHT22;19064;47.912;12.308;2023-07-30T08:12:00;21.30;99.90
32660;DHT22;19064;47.912;12.308;2023-07-30T08:14:28;21.40;99.90
32660;DHT22;19064;47.912;12.308;2023-07-30T08:16:58;21.30;99.90
32660;DHT22;19064;47.912;12.308;2023-07-30T08:19:25;21.40;99.90
32660;DHT22;19064;47.912;12.308;2023-07-30T08:21:53;21.50;99.90
32660;DHT22;19064;47.912;12.308;2023-07-30T08:24:23;21.50;99.90
32660;DHT22;19064;47.912;12.308;2023-07-30T08:26:51;21.30;99.90
32660;DHT22;19064;47.912;12.308;2023-07-30T08:29:19;21.40;99.90
32660;DHT22;19064;47.912;12.308;2023-07-30T08:31:47;21.40;99.90
32660;DHT22;19064;47.912;12.308;2023-07-30T08:34:15;21.50;99.90
32660;DHT22;19064;47.912;12.308;2023-07-30T08:36:43;21.60;99.90
32660;DHT22;19064;47.912;12.308;2023-07-30T08:39:11;21.60;99.90
32660;DHT22;19064;47.912;12.308;2023-07-30T08:41:38;21.70;99.90
32660;DHT22;19064;47.912;12.308;2023-07-30T08:44:07;21.80;99.90
32660;DHT22;19064;47.912;12.308;2023-07-30T08:46:34;22.00;99.90
32660;DHT22;19064;47.912;12.308;2023-07-30T08:49:02;22.00;99.90
32660;DHT22;19064;47.912;12.308;2023-07-30T08:51:34;21.90;99.90
32660;DHT22;19064;47.912;12.308;2023-07-30T08:54:04;21.80;99.90
32660;DHT22;19064;47.912;12.308;2023-07-30T08:56:33;21.60;99.90
32660;DHT22;19064;47.912;12.308;2023-07-30T08:59:01;21.50;99.90
32660;DHT22;19064;47.912;12.308;2023-07-30T09:01:38;21.50;99.90
32660;DHT22;19064;47.912;12.308;2023-07-30T09:04:07;21.50;99.90
32660;DHT22;19064;47.912;12.308;2023-07-30T09:06:37;21.70;99.90
32660;DHT22;19064;47.912;12.308;2023-07-30T09:09:13;21.70;99.90
32660;DHT22;19064;47.912;12.308;2023-07-30T09:11:41;21.80;99.90
32660;DHT22;19064;47.912;12.308;2023-07-30T09:14:09;22.00;99.90
32660;DHT22;19064;47.912;12.308;2023-07-30T09:16:38;22.00;99.90
32660;DHT22;19064;47.912;12.308;2023-07-30T09:19:16;22.10;99.90
32660;DHT22;19064;47.912;12.308;2023-07-30T09:21:46;22.10;99.90
32660;DHT22;19064;47.912;12.308;2023-07-30T09:24:21;22.10;99.90
32660;DHT22;19064;47.912;12.308;2023-07-30T09:26:49;22.10;99.90
32660;DHT22;19064;47.912;12.308;2023-07-30T09:29:18;22.30;99.90
32660;DHT22;19064;47.912;12.308;2023-07-30T09:31:50;22.40;99.90
32660;DHT22;19064;47.912;12.308;2023-07-30T09:34:22;22.40;99.90
32660;DHT22;19064;47.912;12.308;2023-07-30T09:36:53;22.40;99.90
32660;DHT22;19064;47.912;12.308;2023-07-30T09:39:23;22.60;99.90
32660;DHT22;19064;47.912;12.308;2023-07-30T09:41:52;22.50;99.90
32660;DHT22;19064;47.912;12.308;2023-07-30T09:44:21;22.40;99.90
32660;DHT22;19064;47.912;12.308;2023-07-30T09:46:50;22.30;99.90
32660;DHT22;19064;47.912;12.308;2023-07-30T09:49:20;22.20;99.90
32660;DHT22;19064;47.912;12.308;2023-07-30T09:51:48;22.40;99.90
32660;DHT22;19064;47.912;12.308;2023-07-30T09:54:21;22.50;99.90
32660;DHT22;19064;47.912;12.308;2023-07-30T09:56:49;22.60;99.90
32660;DHT22;19064;47.912;12.308;2023-07-30T09:59:17;22.70;99.90
32660;DHT22;19064;47.912;12.308;2023-07-30T10:01:49;22.90;99.90
32660;DHT22;19064;47.912;12.308;2023-07-30T10:04:20;23.00;99.90
32660;DHT22;19064;47.912;12.308;2023-07-30T10:06:51;23.10;99.90
32660;DHT22;19064;47.912;12.308;2023-07-30T10:09:21;23.10;99.90
32660;DHT22;19064;47.912;12.308;2023-07-30T10:11:52;22.90;99.90
32660;DHT22;19064;47.912;12.308;2023-07-30T10:14:22;22.80;99.90
32660;DHT22;19064;47.912;12.308;2023-07-30T10:16:52;22.70;99.90
32660;DHT22;19064;47.912;12.308;2023-07-30T10:19:22;22.50;99.90
32660;DHT22;19064;47.912;12.308;2023-07-30T10:21:53;22.40;99.90
32660;DHT22;19064;47.912;12.308;2023-07-30T10:24:25;22.10;99.90
32660;DHT22;19064;47.912;12.308;2023-07-30T10:26:53;22.20;99.90
32660;DHT22;19064;47.912;12.308;2023-07-30T10:29:24;22.30;99.90
32660;DHT22;19064;47.912;12.308;2023-07-30T10:31:54;22.40;99.90
32660;DHT22;19064;47.912;12.308;2023-07-30T10:34:26;22.30;99.90
32660;DHT22;19064;47.912;12.308;2023-07-30T10:37:00;22.20;99.90
32660;DHT22;19064;47.912;12.308;2023-07-30T10:39:28;22.00;99.90
32660;DHT22;19064;47.912;12.308;2023-07-30T10:41:56;22.00;99.90
32660;DHT22;19064;47.912;12.308;2023-07-30T10:44:26;22.00;99.90
32660;DHT22;19064;47.912;12.308;2023-07-30T10:46:53;22.10;99.90
32660;DHT22;19064;47.912;12.308;2023-07-30T10:49:23;22.10;99.90
32660;DHT22;19064;47.912;12.308;2023-07-30T10:51:51;22.20;99.90
32660;DHT22;19064;47.912;12.308;2023-07-30T10:54:18;22.20;99.90
32660;DHT22;19064;47.912;12.308;2023-07-30T10:56:47;22.20;99.90
32660;DHT22;19064;47.912;12.308;2023-07-30T10:59:17;22.20;99.90
32660;DHT22;19064;47.912;12.308;2023-07-30T11:01:54;22.40;99.90
32660;DHT22;19064;47.912;12.308;2023-07-30T11:04:21;22.50;99.90
32660;DHT22;19064;47.912;12.308;2023-07-30T11:06:53;22.80;99.90
32660;DHT22;19064;47.912;12.308;2023-07-30T11:09:21;23.00;99.90
32660;DHT22;19064;47.912;12.308;2023-07-30T11:11:55;23.10;99.90
32660;DHT22;19064;47.912;12.308;2023-07-30T11:14:26;23.10;99.90
32660;DHT22;19064;47.912;12.308;2023-07-30T11:16:57;23.40;99.90
32660;DHT22;19064;47.912;12.308;2023-07-30T11:19:25;23.30;99.90
32660;DHT22;19064;47.912;12.308;2023-07-30T11:21:54;23.40;99.90
32660;DHT22;19064;47.912;12.308;2023-07-30T11:24:22;23.50;99.90
32660;DHT22;19064;47.912;12.308;2023-07-30T11:26:58;23.40;99.90
32660;DHT22;19064;47.912;12.308;2023-07-30T11:29:26;23.40;99.90
32660;DHT22;19064;47.912;12.308;2023-07-30T11:31:56;23.30;99.90
32660;DHT22;19064;47.912;12.308;2023-07-30T11:34:25;23.70;99.90
32660;DHT22;19064;47.912;12.308;2023-07-30T11:36:52;23.90;99.90
32660;DHT22;19064;47.912;12.308;2023-07-30T11:39:20;23.80;99.90
32660;DHT22;19064;47.912;12.308;2023-07-30T11:41:47;23.80;99.90
32660;DHT22;19064;47.912;12.308;2023-07-30T11:44:30;23.60;99.90
32660;DHT22;19064;47.912;12.308;2023-07-30T11:46:57;23.30;99.90
32660;DHT22;19064;47.912;12.308;2023-07-30T11:49:24;22.90;99.90
32660;DHT22;19064;47.912;12.308;2023-07-30T11:51:51;22.00;99.90
32660;DHT22;19064;47.912;12.308;2023-07-30T11:54:30;21.90;99.90
32660;DHT22;19064;47.912;12.308;2023-07-30T11:56:58;21.90;99.90
32660;DHT22;19064;47.912;12.308;2023-07-30T11:59:24;22.10;99.90
32660;DHT22;19064;47.912;12.308;2023-07-30T12:01:53;22.10;99.90
32660;DHT22;19064;47.912;12.308;2023-07-30T12:04:20;22.40;99.90
32660;DHT22;19064;47.912;12.308;2023-07-30T12:06:50;22.60;99.90
32660;DHT22;19064;47.912;12.308;2023-07-30T12:09:18;22.80;99.90
32660;DHT22;19064;47.912;12.308;2023-07-30T12:11:49;23.10;99.90
32660;DHT22;19064;47.912;12.308;2023-07-30T12:14:16;23.10;99.90
32660;DHT22;19064;47.912;12.308;2023-07-30T12:16:43;23.30;99.90
32660;DHT22;19064;47.912;12.308;2023-07-30T12:19:11;23.50;99.90
32660;DHT22;19064;47.912;12.308;2023-07-30T12:21:38;23.60;99.90
32660;DHT22;19064;47.912;12.308;2023-07-30T12:24:04;23.70;99.90
32660;DHT22;19064;47.912;12.308;2023-07-30T12:26:31;23.70;99.90
32660;DHT22;19064;47.912;12.308;2023-07-30T12:28:58;23.80;99.90
32660;DHT22;19064;47.912;12.308;2023-07-30T12:31:25;23.90;99.90
32660;DHT22;19064;47.912;12.308;2023-07-30T12:33:51;24.00;99.90
32660;DHT22;19064;47.912;12.308;2023-07-30T12:36:19;24.10;99.90
32660;DHT22;19064;47.912;12.308;2023-07-30T12:38:46;24.10;99.90
32660;DHT22;19064;47.912;12.308;2023-07-30T12:41:13;23.90;99.90
32660;DHT22;19064;47.912;12.308;2023-07-30T12:43:40;23.80;99.90
32660;DHT22;19064;47.912;12.308;2023-07-30T12:46:06;23.70;99.90
32660;DHT22;19064;47.912;12.308;2023-07-30T12:48:33;23.50;99.90
32660;DHT22;19064;47.912;12.308;2023-07-30T12:51:00;23.60;99.90
32660;DHT22;19064;47.912;12.308;2023-07-30T12:53:29;23.80;99.90
32660;DHT22;19064;47.912;12.308;2023-07-30T12:55:55;23.80;99.90
32660;DHT22;19064;47.912;12.308;2023-07-30T12:58:22;23.70;99.90
32660;DHT22;19064;47.912;12.308;2023-07-30T13:00:49;23.70;99.90
32660;DHT22;19064;47.912;12.308;2023-07-30T13:03:16;23.80;99.90
32660;DHT22;19064;47.912;12.308;2023-07-30T13:05:43;23.90;99.90
32660;DHT22;19064;47.912;12.308;2023-07-30T13:08:09;24.10;99.90
32660;DHT22;19064;47.912;12.308;2023-07-30T13:10:37;24.30;99.90
32660;DHT22;19064;47.912;12.308;2023-07-30T13:13:04;24.20;99.90
32660;DHT22;19064;47.912;12.308;2023-07-30T13:15:31;24.10;99.90
32660;DHT22;19064;47.912;12.308;2023-07-30T13:17:58;24.10;99.90
32660;DHT22;19064;47.912;12.308;2023-07-30T13:20:25;24.00;99.90
32660;DHT22;19064;47.912;12.308;2023-07-30T13:22:51;24.00;99.90
32660;DHT22;19064;47.912;12.308;2023-07-30T13:25:19;24.10;99.90
32660;DHT22;19064;47.912;12.308;2023-07-30T13:27:47;23.90;99.90
32660;DHT22;19064;47.912;12.308;2023-07-30T13:30:14;23.90;99.90
32660;DHT22;19064;47.912;12.308;2023-07-30T13:32:41;24.00;99.90
32660;DHT22;19064;47.912;12.308;2023-07-30T13:35:08;23.80;99.90
32660;DHT22;19064;47.912;12.308;2023-07-30T13:37:35;23.70;99.90
32660;DHT22;19064;47.912;12.308;2023-07-30T13:40:02;23.50;99.90
32660;DHT22;19064;47.912;12.308;2023-07-30T13:42:29;23.00;99.90
32660;DHT22;19064;47.912;12.308;2023-07-30T13:44:57;22.50;99.90
32660;DHT22;19064;47.912;12.308;2023-07-30T13:47:24;22.10;99.90
32660;DHT22;19064;47.912;12.308;2023-07-30T13:49:50;21.90;99.90
32660;DHT22;19064;47.912;12.308;2023-07-30T13:52:19;21.80;99.90
32660;DHT22;19064;47.912;12.308;2023-07-30T13:54:46;21.70;99.90
32660;DHT22;19064;47.912;12.308;2023-07-30T13:57:13;21.60;99.90
32660;DHT22;19064;47.912;12.308;2023-07-30T13:59:47;21.70;99.90
32660;DHT22;19064;47.912;12.308;2023-07-30T14:02:15;21.80;99.90
32660;DHT22;19064;47.912;12.308;2023-07-30T14:04:42;21.80;99.90
32660;DHT22;19064;47.912;12.308;2023-07-30T14:07:08;21.70;99.90
32660;DHT22;19064;47.912;12.308;2023-07-30T14:09:35;21.60;99.90
32660;DHT22;19064;47.912;12.308;2023-07-30T14:12:04;21.50;99.90
32660;DHT22;19064;47.912;12.308;2023-07-30T14:14:31;21.40;99.90
32660;DHT22;19064;47.912;12.308;2023-07-30T14:16:58;21.30;99.90
32660;DHT22;19064;47.912;12.308;2023-07-30T14:19:27;21.30;99.90
32660;DHT22;19064;47.912;12.308;2023-07-30T14:21:55;21.20;99.90
32660;DHT22;19064;47.912;12.308;2023-07-30T14:24:22;21.20;99.90
32660;DHT22;19064;47.912;12.308;2023-07-30T14:26:48;21.10;99.90
32660;DHT22;19064;47.912;12.308;2023-07-30T14:29:15;21.10;99.90
32660;DHT22;19064;47.912;12.308;2023-07-30T14:31:42;21.10;99.90
32660;DHT22;19064;47.912;12.308;2023-07-30T14:34:09;21.10;99.90
32660;DHT22;19064;47.912;12.308;2023-07-30T14:36:37;21.10;99.90
32660;DHT22;19064;47.912;12.308;2023-07-30T14:39:04;21.20;99.90
32660;DHT22;19064;47.912;12.308;2023-07-30T14:41:30;21.30;99.90
32660;DHT22;19064;47.912;12.308;2023-07-30T14:43:57;21.40;99.90
32660;DHT22;19064;47.912;12.308;2023-07-30T14:46:24;21.40;99.90
32660;DHT22;19064;47.912;12.308;2023-07-30T14:48:50;21.40;99.90
32660;DHT22;19064;47.912;12.308;2023-07-30T14:51:17;21.40;99.90
32660;DHT22;19064;47.912;12.308;2023-07-30T14:53:45;21.30;99.90
32660;DHT22;19064;47.912;12.308;2023-07-30T14:56:12;20.50;99.90
32660;DHT22;19064;47.912;12.308;2023-07-30T14:58:39;18.90;99.90
32660;DHT22;19064;47.912;12.308;2023-07-30T15:01:06;18.60;99.90
32660;DHT22;19064;47.912;12.308;2023-07-30T15:03:33;18.60;99.90
32660;DHT22;19064;47.912;12.308;2023-07-30T15:06:02;18.70;99.90
32660;DHT22;19064;47.912;12.308;2023-07-30T15:08:36;18.80;99.90
32660;DHT22;19064;47.912;12.308;2023-07-30T15:11:04;19.00;99.90
32660;DHT22;19064;47.912;12.308;2023-07-30T15:13:30;19.20;99.90
32660;DHT22;19064;47.912;12.308;2023-07-30T15:15:57;19.50;99.90
32660;DHT22;19064;47.912;12.308;2023-07-30T15:18:24;19.70;99.90
32660;DHT22;19064;47.912;12.308;2023-07-30T15:20:50;19.80;99.90